Felts Field
KSFF : now visible

Airfield :











YOU CAN JOIN US ON...

 
LOGIN :

Register | Disclaimer

   EN    FR    IT 

 









Legend :    VFR   Marginal VFR   IFR   Intensive IFR   Very Intensive IFR
Visi :
Ceiling :
>= 8 km
>= 3000ft
5 to 8 km
1000 to 3000 ft
1500m to 5 km
500 to 1000 ft
800 to 1500m
200 to 500 ft
< 800m
< 200 ft
Symbols :   Thunderstorms  Fog  Heavy snow  Heavy precipitations  Wind > 20 kt






- Airport Elevation : 1953 ft


KSFF - Felts Field

CURRENT METAR :
  • 281353Z 24005KT 10SM SCT011 BKN015 OVC065 10/08 A2990 RMK AO2 RAB05E16 SLP124 T01000083 PNO $

EXPIRED METARs :
  • 281253Z 21005KT 10SM SCT011 BKN028 OVC060 10/09 A2989 RMK AO2 RAB1156E47 SLP119 T01000089 PNO $
  • 281153Z AUTO 22007KT 10SM OVC012 10/08 A2988 RMK AO2 RAB30E41 SLP115 6//// 7//// T01000083 10111 20100 56004 PNO $

TAF KSFF
Valid from the 28 at 13:00 until the 29 at 12:00 UTC


281318Z 2813/2912 21005KT P6SM -RA SCT011 BKN025 OVC060
FM281340 21007KT P6SM SCT015 BKN028 OVC060
FM281800 22012G20KT P6SM VCSH BKN035
FM282100 22012G20KT P6SM -SHRA BKN045 BKN090
FM290400 20006KT P6SM SCT060
KZSE FIR / North America



MET'MAP, your aeronautical weather chart ! - Copyright ORBIFLY December 2007 - Disclaimer

ORBIFLY MET'MAP TEAM :

Programming & Development : Alexandra Zaïnal
Concept & original design : Baudouin d'Aumeries
Assistance for programming : Marc-Olivier Méhu
Technical & hardware support : Manuel Goepfert

Contact : metmap@orbifly.com




SOURCES & CREDITS :

   NOAA       Earth
Advisory